Lake Tahoe Airport South Lake Tahoe US
ICAO: KTVL
IATA: TVL
Category: Medium
Scheduled Services: No

Elevation: 6264 ft
TransAlt. 18000 ft.

Airport Communications:
ASOS:124.725
OAKLAND CNTR:127.95
CTAF:122.95
RENO RDO:122.25
UNICOM:122.95

KTVL Zoom In..

If you have problems with the map follow the link
https://www.worldairports.se/pages/airport.php?
ICAO=KTVL

Runways:

(A) RW 18 length 8541 ft width 100 ft
---- / hdg 177

(B) RW 36 length 8541 ft width 100 ft
---- / hdg 357

Location; KTVL
Day. 11 / Time. 14.14 Zulu
* Altimeter: 30.22
* Temperature: 02° c. 35.6°f.
* Wind from: KTV° Speed L kn.
Dewpoint: -01° c.
Clouds: Few 2500 ft.
Clouds: Broken 3400 ft.
Clouds: Broken 4300 ft.

KTVL 111414Z AUTO VRB04KT FEW025 BKN034 BKN043 02/M01 A3022 RMK AO2 T00221006 $


Wind From KTV°
Speed L kn.

 
 
jpsmedia worldairports.se 2019   terms of use